< < Back
Terminal Aerodrome Forecast


Current Version              Previous Versions:   1  2  3  4  5  6  7  8  9  

Terminal Aerodrome Forecast

061
FTUS42 KMLB 281722
TAFMCO
TAF
KMCO 281722Z 2818/2918 32011KT P6SM SCT250
     FM290000 30006KT P6SM FEW250=

Latest METAR

374
SAUS70 KWBC 282300
MTRMCO
METAR KMCO 282253Z 27011KT 10SM BKN300 19/M01 A3013 RMK AO2 SLP203
T01891006


USA.gov is the U.S. government's official web portal to all federal, state and local government web resources and services.